Time;durP1;ratioP1;P1;durP2;ratioP2;P2;SDS_P1;SDS_P2;PMS_P1;PMS_P2;Temp;Humidity;BMP_temperature;BMP_pressure;BME280_temperature;BME280_humidity;BME280_pressure;Samples;Min_cycle;Max_cycle;Signal;HPM_P1;HPM_P2
2021/12/07 00:01:17;;;;;;;5.50;2.55;;;;;;;24.82;32.50;101347.84;5042863;28;20052;-43
2021/12/07 00:03:46;;;;;;;5.80;3.17;;;;;;;24.82;32.41;101351.31;5043355;28;20383;-44
2021/12/07 00:06:15;;;;;;;4.72;2.50;;;;;;;24.72;32.61;101360.78;5028587;28;20090;-43
2021/12/07 00:08:44;;;;;;;3.58;2.08;;;;;;;24.73;32.36;101361.69;5046833;28;20048;-44
2021/12/07 00:11:12;;;;;;;5.57;2.75;;;;;;;24.69;32.44;101362.47;5046991;28;20402;-44
2021/12/07 00:13:42;;;;;;;4.47;2.05;;;;;;;24.70;32.56;101370.38;5046898;28;20029;-45
2021/12/07 00:16:13;;;;;;;5.55;2.28;;;;;;;24.64;32.34;101378.13;5046866;28;20094;-44
2021/12/07 00:18:42;;;;;;;3.25;1.58;;;;;;;24.71;32.45;101369.50;5046522;28;20753;-44
2021/12/07 00:21:11;;;;;;;5.28;2.08;;;;;;;24.65;32.50;101358.00;5046299;28;20052;-43
2021/12/07 00:23:39;;;;;;;3.63;2.10;;;;;;;24.63;32.57;101359.72;5046485;28;20120;-43
2021/12/07 00:26:09;;;;;;;2.88;1.60;;;;;;;24.67;32.46;101349.28;5046356;28;20044;-43
2021/12/07 00:28:39;;;;;;;6.07;2.92;;;;;;;24.68;32.15;101343.19;5046620;28;20036;-43
2021/12/07 00:31:13;;;;;;;4.50;2.50;;;;;;;24.64;32.44;101345.75;5046066;28;20032;-44
2021/12/07 00:33:50;;;;;;;5.45;2.50;;;;;;;24.62;32.15;101335.25;5029592;28;20029;-43
2021/12/07 00:36:19;;;;;;;4.55;3.17;;;;;;;24.68;32.33;101339.69;5046584;28;20037;-43
2021/12/07 00:38:48;;;;;;;3.63;2.38;;;;;;;24.68;32.23;101344.94;5045991;28;20079;-43
2021/12/07 00:41:16;;;;;;;4.15;2.60;;;;;;;24.71;32.22;101339.78;5046101;28;20107;-43
2021/12/07 00:43:45;;;;;;;4.07;2.17;;;;;;;24.82;32.05;101334.72;5045771;28;20505;-43
2021/12/07 00:46:13;;;;;;;4.70;2.33;;;;;;;24.79;31.89;101329.41;5045853;28;20029;-43
2021/12/07 00:48:41;;;;;;;4.20;2.20;;;;;;;24.78;32.04;101318.03;5045992;28;20542;-43
2021/12/07 00:51:10;;;;;;;3.97;2.25;;;;;;;24.62;32.31;101315.97;5045881;28;20546;-43
2021/12/07 00:53:38;;;;;;;3.55;1.88;;;;;;;24.63;31.63;101321.28;5045766;28;20033;-43
2021/12/07 00:56:07;;;;;;;4.25;2.13;;;;;;;24.70;32.07;101312.66;5045789;28;20090;-43
2021/12/07 00:58:36;;;;;;;4.13;2.15;;;;;;;24.64;31.62;101299.44;5045554;28;20043;-43
2021/12/07 01:01:08;;;;;;;3.90;2.22;;;;;;;24.68;32.01;101303.84;5045923;28;20029;-43
2021/12/07 01:03:38;;;;;;;7.80;2.35;;;;;;;24.59;32.13;101287.97;5045973;28;20070;-43
2021/12/07 01:06:33;;;;;;;4.20;1.73;;;;;;;24.80;31.50;101283.94;5044861;28;20378;-43
2021/12/07 01:25:53;;;;;;;4.70;2.60;;;;;;;24.61;31.99;101236.44;5037606;28;20056;-44
2021/12/07 01:28:29;;;;;;;4.75;2.67;;;;;;;24.60;32.02;101239.00;5045516;28;20072;-44
2021/12/07 01:36:45;;;;;;;5.65;2.53;;;;;;;24.66;31.77;101212.88;5037025;28;20047;-44
2021/12/07 01:44:50;;;;;;;4.53;2.13;;;;;;;24.51;32.13;101200.41;5045254;28;20021;-43
2021/12/07 01:50:11;;;;;;;3.50;1.83;;;;;;;24.53;31.59;101186.47;5045288;28;20128;-43
2021/12/07 01:52:46;;;;;;;3.35;1.77;;;;;;;24.52;31.59;101186.44;5029707;28;20494;-44
2021/12/07 02:00:38;;;;;;;4.13;2.28;;;;;;;24.40;31.86;101153.09;5044856;28;20033;-44
2021/12/07 02:03:05;;;;;;;4.53;2.17;;;;;;;24.47;31.79;101135.69;5044517;28;20447;-47
2021/12/07 02:05:34;;;;;;;4.00;2.10;;;;;;;24.50;31.55;101128.75;5044762;28;20463;-45
2021/12/07 02:08:03;;;;;;;4.63;2.25;;;;;;;24.65;31.30;101121.91;5044445;28;20069;-43
2021/12/07 02:10:32;;;;;;;4.43;2.30;;;;;;;24.63;31.40;101107.91;5044396;28;20119;-45
2021/12/07 02:13:04;;;;;;;4.30;1.98;;;;;;;24.49;31.55;101105.13;5044309;28;20035;-43
2021/12/07 02:15:36;;;;;;;2.47;1.77;;;;;;;24.52;31.35;101110.38;5044356;28;20078;-45
2021/12/07 02:18:05;;;;;;;3.30;1.77;;;;;;;24.52;31.48;101099.91;5044079;28;20036;-44
2021/12/07 02:20:33;;;;;;;5.78;2.40;;;;;;;24.51;31.64;101095.50;5043915;28;20080;-44
2021/12/07 02:23:02;;;;;;;2.85;1.77;;;;;;;24.47;31.67;101091.09;5044442;28;20597;-44
2021/12/07 02:25:32;;;;;;;2.40;1.52;;;;;;;24.53;31.39;101089.44;5044272;28;20040;-44
2021/12/07 02:28:01;;;;;;;3.20;1.52;;;;;;;24.55;31.21;101084.19;5043921;28;20040;-44
2021/12/07 02:30:30;;;;;;;3.05;1.23;;;;;;;24.49;31.65;101089.41;5025872;28;20029;-44
2021/12/07 02:32:59;;;;;;;3.72;1.55;;;;;;;24.42;31.65;101085.78;5043926;28;20033;-44
2021/12/07 02:35:28;;;;;;;5.10;1.60;;;;;;;24.48;31.16;101085.88;5044034;28;20036;-44
2021/12/07 02:37:57;;;;;;;3.03;1.63;;;;;;;24.58;31.22;101072.00;5043806;28;20406;-43
2021/12/07 02:40:26;;;;;;;2.58;1.50;;;;;;;24.48;31.36;101071.91;5043944;28;20036;-43
2021/12/07 02:42:55;;;;;;;1.75;1.20;;;;;;;24.38;31.76;101071.75;5043935;28;20021;-44
2021/12/07 02:45:24;;;;;;;6.47;2.47;;;;;;;24.40;31.79;101069.19;5044141;28;20029;-44
2021/12/07 02:47:51;;;;;;;4.80;2.35;;;;;;;24.58;31.37;101073.75;5043598;28;20546;-43
2021/12/07 02:50:21;;;;;;;4.88;2.50;;;;;;;24.47;31.32;101071.00;5043838;28;20032;-43
2021/12/07 02:52:48;;;;;;;3.55;1.92;;;;;;;24.52;31.46;101061.44;5043699;28;20063;-43
2021/12/07 02:55:18;;;;;;;3.53;2.17;;;;;;;24.44;31.80;101057.84;5043772;28;20457;-42
2021/12/07 02:57:47;;;;;;;4.22;2.55;;;;;;;24.50;31.05;101059.66;5043725;28;20032;-43
2021/12/07 03:00:21;;;;;;;3.10;2.05;;;;;;;24.52;31.17;101050.06;5043573;28;20024;-42
2021/12/07 03:02:57;;;;;;;5.00;2.28;;;;;;;24.52;31.07;101034.34;5043502;28;20036;-44
2021/12/07 03:28:03;;;;;;;5.20;2.55;;;;;;;24.60;31.37;100967.13;5024876;28;20045;-43
2021/12/07 03:30:31;;;;;;;5.95;2.67;;;;;;;24.60;31.10;100964.50;5025098;28;20055;-43
2021/12/07 03:33:00;;;;;;;6.65;2.50;;;;;;;24.64;31.16;100952.28;5042611;28;20037;-43
2021/12/07 03:35:29;;;;;;;6.60;2.75;;;;;;;24.53;31.44;100946.94;5042176;28;20052;-43
2021/12/07 03:37:58;;;;;;;4.78;2.40;;;;;;;24.52;31.34;100947.78;5042246;28;20596;-45
2021/12/07 03:40:27;;;;;;;4.35;2.00;;;;;;;24.52;31.14;100937.31;5045728;28;20103;-43
2021/12/07 03:42:56;;;;;;;5.85;2.40;;;;;;;24.51;31.35;100925.94;5029278;28;20071;-44
2021/12/07 03:45:25;;;;;;;5.57;2.53;;;;;;;24.53;31.14;100920.69;5047355;28;20410;-44
2021/12/07 03:47:53;;;;;;;5.68;2.42;;;;;;;24.63;31.38;100900.69;5047253;28;20086;-43
2021/12/07 03:50:22;;;;;;;4.80;2.05;;;;;;;24.53;31.20;100898.00;5047285;28;20441;-42
2021/12/07 03:52:51;;;;;;;3.65;1.80;;;;;;;24.58;31.31;100898.03;5046760;28;20048;-42
2021/12/07 03:55:20;;;;;;;3.00;1.55;;;;;;;24.48;31.58;100883.94;5046382;28;20067;-43
2021/12/07 03:57:49;;;;;;;4.47;1.73;;;;;;;24.50;31.61;100886.56;5028958;28;20482;-43
2021/12/07 04:00:21;;;;;;;4.90;2.28;;;;;;;24.53;31.25;100868.25;5046898;28;20111;-43
2021/12/07 04:02:50;;;;;;;4.45;2.08;;;;;;;24.45;31.71;100867.31;5029792;28;20025;-44
2021/12/07 04:05:20;;;;;;;5.70;2.35;;;;;;;24.53;31.65;100870.88;5046862;28;20052;-43
2021/12/07 04:07:48;;;;;;;7.78;2.90;;;;;;;24.48;31.41;100860.34;5046457;28;20059;-44
2021/12/07 04:10:20;;;;;;;4.80;2.38;;;;;;;24.41;31.57;100862.03;5046789;28;20064;-43
2021/12/07 04:12:49;;;;;;;5.80;2.85;;;;;;;24.49;31.31;100853.38;5046837;28;20480;-43
2021/12/07 04:15:20;;;;;;;6.15;2.67;;;;;;;24.49;31.78;100838.50;5046904;28;20037;-42
2021/12/07 04:17:49;;;;;;;6.88;2.90;;;;;;;24.51;31.21;100828.91;5046471;28;20047;-42
2021/12/07 04:20:18;;;;;;;5.93;2.30;;;;;;;24.52;31.54;100830.69;5028633;28;20025;-43
2021/12/07 04:22:47;;;;;;;6.47;2.67;;;;;;;24.50;31.38;100815.78;5046017;28;20037;-44
2021/12/07 04:25:17;;;;;;;5.32;2.20;;;;;;;24.52;31.27;100801.81;5012372;28;20466;-43
2021/12/07 04:27:46;;;;;;;6.07;2.42;;;;;;;24.49;31.36;100796.56;5046507;28;20033;-43
2021/12/07 04:30:18;;;;;;;5.85;2.50;;;;;;;24.48;31.65;100796.56;5029041;28;20071;-43
2021/12/07 04:32:47;;;;;;;5.28;2.75;;;;;;;24.43;31.56;100786.00;5028709;28;20064;-43
2021/12/07 04:35:16;;;;;;;7.72;2.58;;;;;;;24.50;31.71;100777.34;5028790;28;20036;-43
2021/12/07 04:37:45;;;;;;;6.88;2.78;;;;;;;24.40;31.95;100770.28;5046080;28;20536;-45
2021/12/07 04:40:17;;;;;;;6.75;2.90;;;;;;;24.40;31.78;100755.41;5046044;28;20025;-45
2021/12/07 04:42:46;;;;;;;7.35;2.60;;;;;;;24.49;31.73;100757.22;5046353;28;20112;-44
2021/12/07 04:45:32;;;;;;;7.57;3.05;;;;;;;24.46;31.83;100757.19;5046400;28;20025;-45
2021/12/07 04:58:51;;;;;;;6.15;2.83;;;;;;;24.46;31.80;100719.63;5041789;28;20045;-46
2021/12/07 05:01:20;;;;;;;7.35;3.30;;;;;;;24.48;31.46;100689.91;5045394;28;20035;-45
2021/12/07 05:03:50;;;;;;;9.40;3.22;;;;;;;24.40;31.76;100687.22;5028185;28;20029;-44
2021/12/07 05:06:21;;;;;;;8.00;3.03;;;;;;;24.33;32.03;100676.69;5045836;28;20980;-44
2021/12/07 05:08:56;;;;;;;8.18;3.58;;;;;;;24.34;31.62;100667.97;5045859;28;20033;-44
2021/12/07 05:11:33;;;;;;;;;;;;;;;24.49;31.49;100654.09;5045887;28;20253;-45
2021/12/07 05:14:28;;;;;;;6.88;2.95;;;;;;;24.32;31.88;100636.50;5028953;28;20491;-45
2021/12/07 05:17:00;;;;;;;9.10;3.47;;;;;;;24.15;32.20;100630.28;5044555;28;20048;-44
2021/12/07 05:25:09;;;;;;;6.18;2.33;;;;;;;24.18;31.95;100619.78;5041828;28;20041;-44
2021/12/07 05:38:44;;;;;;;5.57;2.65;;;;;;;24.28;31.95;100580.53;5038052;28;20127;-46
2021/12/07 05:41:12;;;;;;;9.93;2.47;;;;;;;24.35;31.64;100552.63;5044321;28;20040;-45
2021/12/07 05:43:41;;;;;;;6.85;2.28;;;;;;;24.31;31.89;100556.13;5045165;28;20028;-44
2021/12/07 05:46:10;;;;;;;7.90;2.97;;;;;;;24.37;31.54;100550.88;5044959;28;20021;-44
2021/12/07 05:48:38;;;;;;;7.75;3.20;;;;;;;24.25;31.75;100541.22;5045060;28;20440;-45
2021/12/07 05:51:06;;;;;;;9.45;3.65;;;;;;;24.17;32.20;100539.41;5044795;28;20024;-44
2021/12/07 05:53:35;;;;;;;7.30;2.83;;;;;;;24.23;31.78;100518.50;5044436;28;20033;-44
2021/12/07 05:56:04;;;;;;;9.10;3.38;;;;;;;24.19;31.79;100524.56;5044810;28;20413;-44
2021/12/07 05:58:32;;;;;;;7.55;3.10;;;;;;;24.24;31.99;100502.75;5044769;28;20064;-45
2021/12/07 06:01:01;;;;;;;8.23;2.90;;;;;;;24.23;31.88;100490.56;5044938;28;20032;-44
2021/12/07 06:03:29;;;;;;;8.20;3.05;;;;;;;24.27;31.71;100480.94;5043957;28;20037;-45
2021/12/07 06:06:01;;;;;;;6.55;2.85;;;;;;;24.12;31.84;100477.41;5025593;28;20498;-44
2021/12/07 06:08:30;;;;;;;12.52;3.50;;;;;;;24.04;32.17;100455.50;5044358;28;20052;-44
2021/12/07 06:10:58;;;;;;;7.60;2.70;;;;;;;24.22;32.07;100435.47;5044205;28;20589;-44
2021/12/07 06:13:26;;;;;;;7.95;2.65;;;;;;;24.21;31.64;100436.34;5044220;28;20040;-47
2021/12/07 06:15:55;;;;;;;7.25;2.60;;;;;;;24.16;31.72;100420.63;5044444;28;20056;-45
2021/12/07 06:18:22;;;;;;;8.02;2.70;;;;;;;24.25;31.67;100430.25;5044151;28;20041;-44
2021/12/07 06:20:51;;;;;;;10.15;2.63;;;;;;;24.21;31.68;100428.50;5044201;28;20083;-44
2021/12/07 06:23:18;;;;;;;6.68;2.53;;;;;;;24.26;31.49;100404.03;5044747;28;20025;-45
2021/12/07 06:25:48;;;;;;;7.20;2.55;;;;;;;24.22;31.84;100415.41;5044011;28;20032;-44
2021/12/07 06:28:17;;;;;;;5.70;2.45;;;;;;;24.18;31.85;100408.41;5043340;28;20120;-44
2021/12/07 06:30:46;;;;;;;8.48;2.80;;;;;;;24.28;31.57;100388.34;5044000;28;20033;-44
2021/12/07 06:33:16;;;;;;;5.50;2.47;;;;;;;24.13;31.84;100383.91;5044017;28;20549;-44
2021/12/07 06:35:45;;;;;;;8.45;2.60;;;;;;;24.12;32.21;100369.94;5044207;28;20464;-44
2021/12/07 06:38:14;;;;;;;9.55;2.95;;;;;;;24.06;32.34;100369.06;5044265;28;20033;-44
2021/12/07 06:40:43;;;;;;;10.00;3.60;;;;;;;23.97;32.17;100365.53;5044134;28;20036;-44
2021/12/07 06:43:11;;;;;;;8.52;3.45;;;;;;;24.02;32.19;100372.53;5026629;28;20120;-44
2021/12/07 06:45:40;;;;;;;11.82;3.50;;;;;;;24.05;32.05;100368.16;5043282;28;20040;-43
2021/12/07 06:48:09;;;;;;;7.75;3.00;;;;;;;24.04;32.43;100355.94;5043666;28;20037;-44
2021/12/07 06:50:38;;;;;;;10.15;3.67;;;;;;;24.08;32.35;100365.56;5043530;28;20035;-44
2021/12/07 06:53:06;;;;;;;7.50;3.25;;;;;;;24.06;32.08;100353.34;5043974;28;20040;-44
2021/12/07 06:55:35;;;;;;;8.70;3.17;;;;;;;24.16;32.29;100349.00;5043708;28;20036;-44
2021/12/07 06:58:05;;;;;;;8.32;3.20;;;;;;;24.13;32.10;100352.47;5043483;28;20039;-44
2021/12/07 07:00:33;;;;;;;10.98;3.15;;;;;;;24.23;31.81;100337.66;5043648;28;20036;-44
2021/12/07 07:03:02;;;;;;;9.52;3.67;;;;;;;24.17;31.78;100322.78;5043339;28;20144;-44
2021/12/07 07:05:30;;;;;;;8.00;3.17;;;;;;;24.16;31.96;100314.94;5043844;28;20502;-44
2021/12/07 07:07:59;;;;;;;9.55;2.60;;;;;;;24.15;32.26;100286.97;5043596;28;20067;-44
2021/12/07 07:10:28;;;;;;;9.23;3.10;;;;;;;24.08;32.46;100300.06;5043544;28;20569;-44
2021/12/07 07:12:57;;;;;;;7.70;2.83;;;;;;;24.05;32.13;100286.94;5042971;28;20056;-44
2021/12/07 07:15:25;;;;;;;10.32;3.35;;;;;;;24.10;32.31;100284.31;5043026;28;20028;-44
2021/12/07 07:17:54;;;;;;;8.13;2.65;;;;;;;24.07;32.27;100268.63;5043233;28;20040;-44
2021/12/07 07:20:23;;;;;;;10.30;3.45;;;;;;;24.11;32.20;100268.63;5042892;28;20029;-44
2021/12/07 07:22:52;;;;;;;9.15;2.95;;;;;;;24.05;32.27;100258.13;5043349;28;20037;-44
2021/12/07 07:25:20;;;;;;;10.93;3.03;;;;;;;24.09;32.29;100248.50;5043317;28;20505;-44
2021/12/07 07:27:49;;;;;;;9.50;3.13;;;;;;;24.11;31.93;100241.53;5043063;28;20094;-43
2021/12/07 07:30:19;;;;;;;6.43;2.70;;;;;;;24.03;32.32;100231.03;5043257;28;20112;-44
2021/12/07 07:32:48;;;;;;;11.10;2.83;;;;;;;24.03;32.64;100223.19;5025545;28;20032;-44
2021/12/07 07:35:18;;;;;;;8.00;2.55;;;;;;;24.06;32.39;100204.84;5043137;28;20139;-44
2021/12/07 07:37:47;;;;;;;8.20;2.60;;;;;;;24.10;32.29;100192.63;5025449;28;20375;-44
2021/12/07 07:40:18;;;;;;;8.95;2.75;;;;;;;24.05;32.12;100182.13;5042953;28;20482;-44
2021/12/07 07:42:46;;;;;;;9.68;2.78;;;;;;;24.02;32.19;100176.03;5043432;28;20025;-45
2021/12/07 07:45:17;;;;;;;10.90;2.92;;;;;;;24.05;32.63;100171.66;5043217;28;20513;-45
2021/12/07 07:47:45;;;;;;;9.65;4.05;;;;;;;24.10;32.38;100159.44;5043023;28;20037;-44
2021/12/07 07:50:13;;;;;;;12.30;3.28;;;;;;;24.15;32.20;100153.34;5042712;28;20033;-44
2021/12/07 07:52:41;;;;;;;7.82;3.40;;;;;;;24.12;32.18;100141.09;5042809;28;20418;-44
2021/12/07 07:55:10;;;;;;;8.05;2.72;;;;;;;24.09;32.20;100139.34;5043211;28;20056;-44
2021/12/07 07:57:38;;;;;;;15.35;3.47;;;;;;;24.11;32.47;100140.22;5042844;28;20033;-44
2021/12/07 08:00:09;;;;;;;9.85;3.38;;;;;;;24.11;32.66;100128.84;5042752;28;20163;-44
2021/12/07 08:02:37;;;;;;;8.43;2.85;;;;;;;24.01;32.60;100095.69;5043132;28;20111;-44
2021/12/07 08:05:05;;;;;;;10.60;3.17;;;;;;;23.96;32.69;100098.28;5025364;28;20111;-44
2021/12/07 08:07:33;;;;;;;9.60;2.95;;;;;;;24.08;32.64;100086.94;5042757;28;20017;-44
2021/12/07 08:10:01;;;;;;;8.98;3.05;;;;;;;24.00;32.91;100086.09;5042725;28;20041;-45
2021/12/07 08:12:29;;;;;;;10.38;3.42;;;;;;;23.96;32.95;100079.94;5042377;28;20479;-44
2021/12/07 08:14:57;;;;;;;10.75;3.47;;;;;;;24.02;32.76;100066.00;5045243;28;20041;-46
2021/12/07 08:17:25;;;;;;;7.88;2.83;;;;;;;24.14;32.52;100041.53;5042698;28;20112;-44
2021/12/07 08:19:53;;;;;;;9.02;3.05;;;;;;;24.00;32.58;100042.41;5042756;28;20021;-46
2021/12/07 08:22:22;;;;;;;9.73;2.83;;;;;;;24.05;32.71;100022.31;5042304;28;20102;-45
2021/12/07 08:24:50;;;;;;;8.57;3.13;;;;;;;24.04;32.63;100012.72;5043762;28;20029;-46
2021/12/07 08:27:18;;;;;;;11.52;3.30;;;;;;;23.99;32.72;100006.63;5046322;28;20041;-44
2021/12/07 08:29:50;;;;;;;7.85;2.80;;;;;;;24.03;32.56;99997.00;5046375;28;20445;-44
2021/12/07 08:32:19;;;;;;;10.25;2.97;;;;;;;24.00;32.75;99986.53;5046241;28;21062;-44
2021/12/07 08:34:48;;;;;;;11.55;3.80;;;;;;;24.00;32.81;99979.53;5045964;28;20029;-44
2021/12/07 08:37:16;;;;;;;12.57;4.25;;;;;;;24.15;33.02;99951.56;5045804;28;20025;-44
2021/12/07 08:39:45;;;;;;;8.75;2.90;;;;;;;24.17;32.85;99949.78;5046021;28;20040;-44
2021/12/07 08:42:15;;;;;;;10.40;3.83;;;;;;;24.19;33.01;99934.94;5046311;28;20033;-45
2021/12/07 08:44:44;;;;;;;12.38;3.97;;;;;;;24.17;32.65;99920.97;5046428;28;20028;-45
2021/12/07 08:47:11;;;;;;;10.18;3.63;;;;;;;24.18;32.61;99909.59;5046380;28;20489;-44
2021/12/07 08:49:40;;;;;;;11.05;3.83;;;;;;;24.21;32.95;99901.72;5046199;28;20029;-44
2021/12/07 08:52:09;;;;;;;10.63;2.97;;;;;;;24.19;32.70;99882.53;5028606;28;20071;-44
2021/12/07 08:59:57;;;;;;;13.68;3.92;;;;;;;24.17;32.96;99824.91;5038006;28;20045;-44
2021/12/07 09:02:27;;;;;;;20.95;4.57;;;;;;;24.09;33.04;99819.69;5045573;28;20086;-45
2021/12/07 09:04:55;;;;;;;12.10;4.13;;;;;;;24.13;33.09;99810.06;5045747;28;20029;-45
2021/12/07 09:07:25;;;;;;;14.98;4.30;;;;;;;24.06;33.12;99798.75;5045622;28;20033;-45
2021/12/07 09:09:53;;;;;;;11.60;4.35;;;;;;;24.08;33.40;99778.66;5045941;28;20029;-44
2021/12/07 09:12:22;;;;;;;12.05;4.03;;;;;;;23.99;33.65;99786.59;5045789;28;20111;-45
2021/12/07 09:14:53;;;;;;;10.25;3.55;;;;;;;24.05;33.13;99765.56;5045440;28;20467;-44
2021/12/07 09:17:21;;;;;;;12.90;4.63;;;;;;;24.15;33.05;99753.28;5045603;28;20116;-43
2021/12/07 09:19:50;;;;;;;11.63;3.95;;;;;;;24.13;33.57;99739.31;5045661;28;20075;-44
2021/12/07 09:22:19;;;;;;;11.32;3.97;;;;;;;24.04;33.31;99706.19;5045444;28;20998;-45
2021/12/07 09:24:47;;;;;;;11.35;3.72;;;;;;;24.08;33.41;99702.69;5045400;28;20128;-45
2021/12/07 09:27:16;;;;;;;11.25;3.65;;;;;;;24.03;33.54;99709.69;5045079;28;20041;-44
2021/12/07 09:29:44;;;;;;;10.50;3.67;;;;;;;24.06;33.49;99701.81;5045389;28;20108;-44
2021/12/07 09:32:13;;;;;;;10.73;3.05;;;;;;;24.11;33.56;99673.84;5045402;28;20025;-44
2021/12/07 09:34:42;;;;;;;11.00;3.95;;;;;;;24.09;33.51;99659.88;5045378;28;20033;-44
2021/12/07 09:37:10;;;;;;;10.38;3.50;;;;;;;24.16;33.17;99654.59;5044330;28;20033;-47
2021/12/07 09:39:39;;;;;;;12.73;4.55;;;;;;;24.05;33.52;99636.34;5044918;28;20152;-44
2021/12/07 09:42:07;;;;;;;14.20;3.50;;;;;;;24.13;33.73;99637.13;5044902;28;20037;-45
2021/12/07 09:44:36;;;;;;;14.55;3.92;;;;;;;24.15;33.38;99618.81;5044617;28;20371;-45
2021/12/07 09:47:05;;;;;;;9.38;3.08;;;;;;;24.18;33.38;99616.13;5045604;28;20048;-44
2021/12/07 09:49:33;;;;;;;18.83;4.53;;;;;;;24.17;33.80;99603.91;5044990;28;20087;-48
2021/12/07 09:52:01;;;;;;;13.02;3.90;;;;;;;24.13;33.81;99579.50;5045080;28;20045;-46
2021/12/07 09:54:29;;;;;;;19.67;4.40;;;;;;;24.11;33.54;99576.03;5044915;28;20075;-45
2021/12/07 09:56:58;;;;;;;12.10;4.72;;;;;;;24.15;33.77;99555.91;5044886;28;20106;-48
2021/12/07 09:59:26;;;;;;;12.52;4.35;;;;;;;24.14;33.34;99568.13;5044903;28;20465;-45
2021/12/07 10:01:54;;;;;;;13.13;4.18;;;;;;;24.09;33.89;99562.06;5044416;28;20041;-45
2021/12/07 10:04:27;;;;;;;12.85;3.88;;;;;;;24.02;33.85;99548.16;5044729;28;20068;-44
2021/12/07 10:06:56;;;;;;;14.52;5.10;;;;;;;24.04;33.61;99537.69;5044493;28;20029;-45
2021/12/07 10:09:55;;;;;;;16.85;4.28;;;;;;;24.11;33.62;99537.59;5044475;28;20033;-43
2021/12/07 10:12:27;;;;;;;19.98;5.00;;;;;;;24.04;33.59;99530.69;5044391;28;20040;-43
2021/12/07 10:14:56;;;;;;;16.58;4.18;;;;;;;24.07;33.79;99509.69;5044329;28;20029;-43
2021/12/07 10:17:25;;;;;;;14.93;4.40;;;;;;;24.06;33.55;99509.72;5044131;28;20029;-43
2021/12/07 10:19:53;;;;;;;12.95;4.07;;;;;;;24.03;34.12;99507.13;5044288;28;20060;-44
2021/12/07 10:22:21;;;;;;;13.75;4.40;;;;;;;24.09;33.96;99499.19;5044342;28;20061;-43
2021/12/07 10:24:54;;;;;;;12.70;3.15;;;;;;;23.97;34.11;99492.34;5044451;28;20127;-43
2021/12/07 10:27:43;;;;;;;9.88;3.90;;;;;;;24.18;33.87;99493.88;5044180;28;20036;-43
2021/12/07 10:30:18;;;;;;;12.50;3.75;;;;;;;24.28;33.55;99487.63;5043718;28;20115;-44
2021/12/07 10:33:06;;;;;;;16.20;4.43;;;;;;;24.18;33.40;99495.59;5044220;28;20084;-43
2021/12/07 10:35:36;;;;;;;11.27;3.50;;;;;;;24.23;33.36;99501.66;5043908;28;20035;-43
2021/12/07 10:38:16;;;;;;;14.40;3.90;;;;;;;24.16;33.87;99476.44;5043822;28;20029;-43
2021/12/07 10:41:08;;;;;;;10.57;3.53;;;;;;;24.25;33.78;99460.59;5043642;28;20037;-44
2021/12/07 10:43:41;;;;;;;10.30;3.45;;;;;;;24.28;33.31;99437.84;5036372;28;20044;-43
2021/12/07 10:46:30;;;;;;;9.85;3.20;;;;;;;24.24;33.59;99412.53;5043726;28;20040;-44
2021/12/07 10:49:19;;;;;;;13.32;3.45;;;;;;;24.18;33.81;99393.41;5035760;28;20550;-44
2021/12/07 10:52:09;;;;;;;12.18;3.92;;;;;;;24.13;33.92;99377.75;5035201;28;20222;-44
2021/12/07 10:54:40;;;;;;;15.57;4.22;;;;;;;23.99;33.75;99367.47;5035550;28;20064;-43
2021/12/07 10:57:14;;;;;;;28.52;3.67;;;;;;;24.12;33.83;99384.78;5043179;28;20036;-44
2021/12/07 10:59:53;;;;;;;10.45;3.50;;;;;;;24.06;33.90;99356.03;5026391;28;20032;-43
2021/12/07 11:02:22;;;;;;;11.93;3.95;;;;;;;24.09;34.09;99356.00;5043597;28;20024;-44
2021/12/07 11:04:51;;;;;;;12.52;3.80;;;;;;;24.07;33.92;99328.94;5025700;28;20459;-43
2021/12/07 11:07:30;;;;;;;13.23;3.83;;;;;;;24.13;33.84;99335.84;5025040;28;20029;-43
2021/12/07 11:10:10;;;;;;;10.57;4.30;;;;;;;24.07;34.02;99341.19;5043590;28;20025;-43
2021/12/07 11:12:47;;;;;;;12.10;4.07;;;;;;;24.14;34.03;99344.59;5043576;28;20033;-47
2021/12/07 11:15:22;;;;;;;12.65;3.70;;;;;;;24.22;33.96;99338.34;5024958;28;20426;-46
2021/12/07 11:17:51;;;;;;;12.27;4.28;;;;;;;24.22;34.05;99325.25;5043726;28;20060;-43
2021/12/07 11:20:20;;;;;;;11.77;4.20;;;;;;;24.15;33.97;99310.50;5025648;28;20025;-44
2021/12/07 11:32:10;;;;;;;10.65;3.40;;;;;;;24.17;34.19;99290.38;5027788;28;20090;-44
2021/12/07 11:34:41;;;;;;;13.50;4.10;;;;;;;24.16;33.99;99291.28;5025408;28;20429;-43
2021/12/07 11:37:13;;;;;;;12.77;3.65;;;;;;;24.08;34.33;99283.53;5042813;28;20055;-43
2021/12/07 11:39:54;;;;;;;8.15;3.40;;;;;;;24.12;34.32;99268.63;5043039;28;20140;-44
2021/12/07 11:42:25;;;;;;;9.70;3.47;;;;;;;24.10;33.92;99270.38;5043072;28;20079;-44
2021/12/07 11:44:57;;;;;;;14.88;4.18;;;;;;;24.06;34.12;99261.72;5043221;28;20065;-45
2021/12/07 11:50:43;;;;;;;11.77;3.88;;;;;;;24.15;34.21;99228.44;5018382;28;20099;-44
2021/12/07 11:53:16;;;;;;;10.85;3.25;;;;;;;24.15;33.97;99224.03;5042831;28;20033;-44
2021/12/07 11:55:49;;;;;;;8.25;3.35;;;;;;;24.11;33.92;99230.22;5043130;28;20053;-44
2021/12/07 11:58:20;;;;;;;8.05;2.95;;;;;;;24.02;34.06;99239.06;5043104;28;20043;-44
2021/12/07 12:00:52;;;;;;;10.10;3.15;;;;;;;24.03;34.40;99214.59;5027130;28;20033;-44
2021/12/07 12:03:22;;;;;;;9.13;3.40;;;;;;;24.07;33.91;99228.53;5047227;28;20029;-45
2021/12/07 12:05:52;;;;;;;10.27;2.80;;;;;;;24.05;34.36;99290.56;5047050;28;20032;-43
2021/12/07 12:08:21;;;;;;;9.30;2.97;;;;;;;24.12;34.32;99306.19;5046959;28;20025;-44
2021/12/07 12:14:19;;;;;;;8.93;3.53;;;;;;;24.25;34.01;99262.31;5045973;28;20500;-44
2021/12/07 12:16:56;;;;;;;8.98;2.78;;;;;;;24.26;33.85;99274.50;5046543;28;20071;-43
2021/12/07 12:19:31;;;;;;;8.82;3.60;;;;;;;24.30;34.00;99277.09;5046580;28;20074;-43
2021/12/07 12:22:08;;;;;;;9.93;3.70;;;;;;;24.11;34.17;99269.50;5046155;28;20040;-43
2021/12/07 12:24:45;;;;;;;7.95;3.40;;;;;;;24.20;34.00;99258.03;5046339;28;20052;-43
2021/12/07 12:27:18;;;;;;;8.82;3.05;;;;;;;24.17;34.05;99239.72;5046313;28;20115;-44
2021/12/07 12:29:49;;;;;;;8.68;3.40;;;;;;;24.16;34.30;99238.88;5046554;28;20024;-43
2021/12/07 12:32:33;;;;;;;5.45;2.53;;;;;;;24.23;33.73;99237.91;5046477;28;20463;-43
2021/12/07 12:35:22;;;;;;;11.77;3.45;;;;;;;24.28;33.95;99241.28;5029650;28;20174;-43
2021/12/07 12:37:51;;;;;;;9.93;3.20;;;;;;;24.24;34.15;99231.75;5028432;28;20032;-44
2021/12/07 12:40:24;;;;;;;10.20;3.53;;;;;;;24.33;34.04;99229.88;5046097;28;20094;-43
2021/12/07 12:42:55;;;;;;;7.38;2.78;;;;;;;24.25;33.95;99237.88;5028588;28;20036;-43
2021/12/07 12:45:28;;;;;;;10.23;3.17;;;;;;;24.18;34.28;99270.28;5028181;28;20132;-44
2021/12/07 12:47:57;;;;;;;9.70;3.15;;;;;;;24.26;33.98;99286.75;5045807;28;20546;-44
2021/12/07 12:50:33;;;;;;;7.70;2.65;;;;;;;24.28;33.71;99287.63;5045932;28;20040;-43
2021/12/07 12:53:06;;;;;;;7.32;3.05;;;;;;;24.29;33.98;99273.63;5046030;28;20043;-43
2021/12/07 12:55:36;;;;;;;8.65;3.65;;;;;;;24.26;33.98;99274.50;5045779;28;20029;-44
2021/12/07 12:58:24;;;;;;;12.73;3.05;;;;;;;24.22;34.21;99240.53;5045881;28;20032;-44
2021/12/07 13:01:02;;;;;;;8.68;3.10;;;;;;;24.37;33.94;99245.53;5038299;28;20041;-44
2021/12/07 13:04:08;;;;;;;9.52;3.03;;;;;;;24.41;34.25;99241.09;5045861;28;20025;-44
2021/12/07 13:06:55;;;;;;;6.32;2.63;;;;;;;24.42;34.10;99243.72;5018805;28;20434;-44
2021/12/07 13:09:32;;;;;;;8.75;3.17;;;;;;;24.50;33.97;99250.56;5045882;28;20033;-44
2021/12/07 13:12:05;;;;;;;11.88;3.92;;;;;;;24.48;34.14;99255.00;5026413;28;20448;-44
2021/12/07 13:14:35;;;;;;;10.18;3.95;;;;;;;24.48;34.17;99261.09;5045811;28;20029;-44
2021/12/07 13:17:18;;;;;;;17.02;5.07;;;;;;;24.47;33.94;99280.31;5045587;28;20428;-43
2021/12/07 13:20:09;;;;;;;14.88;5.50;;;;;;;24.62;33.78;99280.97;5045266;28;20032;-44
2021/12/07 13:22:59;;;;;;;15.23;4.93;;;;;;;24.50;34.23;99274.16;5019313;28;20052;-44
2021/12/07 13:25:32;;;;;;;13.85;4.90;;;;;;;24.55;33.78;99281.09;5025226;28;20069;-44
2021/12/07 13:28:02;;;;;;;12.10;4.80;;;;;;;24.47;33.93;99284.72;5025497;28;20043;-44
2021/12/07 13:30:50;;;;;;;14.73;4.40;;;;;;;24.55;34.41;99282.81;5025795;28;20071;-45
2021/12/07 13:33:39;;;;;;;15.40;5.00;;;;;;;24.61;34.08;99287.97;5025092;28;20037;-44